createdAt,value
2022-10-05T00:00:50.185Z,77.83
2022-10-05T00:03:18.408Z,80.78
2022-10-05T00:05:46.616Z,77.17
2022-10-05T00:08:25.116Z,76.39
2022-10-05T00:10:53.368Z,76.48
2022-10-05T00:13:26.567Z,76.31
2022-10-05T00:16:20.053Z,76.44
2022-10-05T00:18:52.636Z,76.10
2022-10-05T00:21:26.395Z,76.54
2022-10-05T00:23:56.429Z,81.97
2022-10-05T00:26:26.811Z,78.56
2022-10-05T00:28:55.185Z,77.16
2022-10-05T00:31:31.974Z,78.40
2022-10-05T00:34:00.196Z,78.78
2022-10-05T00:36:28.076Z,78.95
2022-10-05T00:38:55.848Z,80.90
2022-10-05T00:41:53.067Z,79.22
2022-10-05T00:44:49.746Z,81.63
2022-10-05T00:47:40.685Z,79.00
2022-10-05T00:50:27.075Z,76.80
2022-10-05T00:53:05.145Z,79.22
2022-10-05T00:55:37.587Z,80.60
2022-10-05T00:58:32.986Z,77.47
2022-10-05T01:01:15.905Z,78.43
2022-10-05T01:03:50.265Z,80.43
2022-10-05T01:06:56.338Z,80.15
2022-10-05T01:09:27.065Z,79.12
2022-10-05T01:12:14.460Z,81.03
2022-10-05T01:14:42.585Z,80.64
2022-10-05T01:17:26.562Z,78.31
2022-10-05T01:20:06.787Z,76.81
2022-10-05T01:23:12.967Z,78.24
2022-10-05T01:25:52.946Z,77.07
2022-10-05T01:28:54.136Z,76.62
2022-10-05T01:32:08.456Z,80.41
2022-10-05T01:34:41.187Z,83.34
2022-10-05T01:37:23.128Z,83.13
2022-10-05T01:40:05.544Z,80.75
2022-10-05T01:42:42.745Z,79.16
2022-10-05T01:45:23.416Z,76.94
2022-10-05T01:47:59.514Z,75.49
2022-10-05T01:50:27.165Z,76.53
2022-10-05T01:53:05.757Z,75.46
2022-10-05T01:55:44.887Z,73.77
2022-10-05T01:58:20.236Z,74.64
2022-10-05T02:00:59.234Z,74.31
2022-10-05T02:03:39.966Z,74.49
2022-10-05T02:06:15.917Z,76.63
2022-10-05T02:08:48.126Z,76.18
2022-10-05T02:11:18.707Z,76.03
2022-10-05T02:13:51.705Z,76.20
2022-10-05T02:16:19.455Z,75.58
2022-10-05T02:18:57.994Z,75.85
2022-10-05T02:21:27.092Z,77.92
2022-10-05T02:23:58.004Z,77.92
2022-10-05T02:26:26.515Z,78.01
2022-10-05T02:28:58.848Z,79.38
2022-10-05T02:31:41.140Z,77.54
2022-10-05T02:34:30.704Z,77.30
2022-10-05T02:37:20.475Z,77.28
2022-10-05T02:40:14.547Z,77.71
2022-10-05T02:42:57.635Z,79.06
2022-10-05T02:45:44.244Z,78.15
2022-10-05T02:48:24.189Z,78.26
2022-10-05T02:51:03.999Z,77.01
2022-10-05T02:53:40.505Z,77.06
2022-10-05T02:56:19.505Z,76.89
2022-10-05T02:59:06.984Z,75.99
2022-10-05T03:01:41.024Z,75.73
2022-10-05T03:04:34.478Z,77.77
2022-10-05T03:07:14.906Z,76.50
2022-10-05T03:10:01.543Z,81.16
2022-10-05T03:12:49.366Z,78.72
2022-10-05T03:15:45.367Z,79.89
2022-10-05T03:18:33.525Z,77.70
2022-10-05T03:21:15.230Z,77.58
2022-10-05T03:23:49.516Z,77.65
2022-10-05T03:26:20.565Z,77.58
2022-10-05T03:29:00.664Z,77.31
2022-10-05T03:31:53.635Z,77.74
2022-10-05T03:34:38.286Z,77.84
2022-10-05T03:37:15.917Z,77.81
2022-10-05T03:39:48.127Z,77.63
2022-10-05T03:42:35.130Z,76.87
2022-10-05T03:45:18.547Z,77.72
2022-10-05T03:48:01.440Z,83.71
2022-10-05T03:50:33.655Z,82.80
2022-10-05T03:53:06.147Z,79.13
2022-10-05T03:56:18.964Z,78.11
2022-10-05T03:58:54.887Z,78.14
2022-10-05T04:01:26.298Z,77.08
2022-10-05T04:03:59.367Z,79.00
2022-10-05T04:06:34.383Z,79.29
2022-10-05T04:09:34.467Z,79.44
2022-10-05T04:12:37.757Z,77.52
2022-10-05T04:15:18.698Z,77.82
2022-10-05T04:17:50.895Z,77.11
2022-10-05T04:20:43.595Z,78.84
2022-10-05T04:23:15.227Z,77.05
2022-10-05T04:25:50.705Z,76.45
2022-10-05T04:29:13.106Z,76.53
2022-10-05T04:32:15.726Z,76.49
2022-10-05T04:34:57.090Z,76.67
2022-10-05T04:37:46.549Z,79.67
2022-10-05T04:40:45.768Z,79.29
2022-10-05T04:43:23.246Z,80.37
2022-10-05T04:45:51.098Z,77.94
2022-10-05T04:48:44.808Z,78.88
2022-10-05T04:51:34.879Z,80.31
2022-10-05T04:54:03.133Z,81.58
2022-10-05T04:56:37.736Z,79.66
2022-10-05T04:59:25.066Z,78.01
2022-10-05T05:02:47.275Z,77.26
2022-10-05T05:05:15.708Z,79.75
2022-10-05T05:08:04.977Z,79.39
2022-10-05T05:10:39.805Z,77.40
2022-10-05T05:13:21.877Z,76.38
2022-10-05T05:16:13.270Z,77.78
2022-10-05T05:18:58.397Z,77.61
2022-10-05T05:21:38.979Z,77.09
2022-10-05T05:24:19.307Z,75.92
2022-10-05T05:26:56.146Z,81.11
2022-10-05T05:29:34.556Z,84.16
2022-10-05T05:32:24.863Z,84.59
2022-10-05T05:35:31.246Z,81.23
2022-10-05T05:38:23.596Z,85.89
2022-10-05T05:41:13.057Z,81.72
2022-10-05T05:43:53.520Z,75.77
2022-10-05T05:47:01.703Z,73.27
2022-10-05T05:49:28.045Z,72.13
2022-10-05T05:52:00.042Z,70.24
2022-10-05T05:54:36.325Z,70.38
2022-10-05T05:57:11.196Z,71.09
2022-10-05T05:59:59.306Z,69.20
2022-10-05T06:02:48.103Z,66.87
2022-10-05T06:05:16.388Z,66.03
2022-10-05T06:07:44.826Z,65.88
2022-10-05T06:10:38.147Z,65.18
2022-10-05T06:13:12.325Z,64.59
2022-10-05T06:15:49.665Z,63.88
2022-10-05T06:18:20.217Z,65.49
2022-10-05T06:20:57.627Z,66.18
2022-10-05T06:23:49.059Z,61.47
2022-10-05T06:26:39.721Z,65.80
2022-10-05T06:29:12.856Z,66.82
2022-10-05T06:32:03.073Z,66.50
2022-10-05T06:34:31.316Z,60.59
2022-10-05T06:37:01.698Z,64.98
2022-10-05T06:40:05.100Z,66.17
2022-10-05T06:42:57.587Z,66.24
2022-10-05T06:45:39.027Z,65.14
2022-10-05T06:48:40.306Z,64.60
2022-10-05T06:51:35.079Z,66.06
2022-10-05T06:54:14.436Z,64.43
2022-10-05T06:56:50.026Z,63.66
2022-10-05T06:59:30.270Z,66.18
2022-10-05T07:02:14.972Z,66.13
2022-10-05T07:05:12.717Z,65.94
2022-10-05T07:07:58.650Z,66.64
2022-10-05T07:11:08.637Z,61.19
2022-10-05T07:13:47.914Z,62.84
2022-10-05T07:16:28.763Z,61.69
2022-10-05T07:19:08.224Z,63.63
2022-10-05T07:22:13.954Z,60.89
2022-10-05T07:24:45.017Z,59.40
2022-10-05T07:27:16.177Z,60.30
2022-10-05T07:30:19.377Z,58.55
2022-10-05T07:33:01.736Z,61.57
2022-10-05T07:36:12.226Z,58.62
2022-10-05T07:38:46.176Z,56.53
2022-10-05T07:41:20.347Z,58.59
2022-10-05T07:44:03.791Z,56.23
2022-10-05T07:46:32.265Z,57.26
2022-10-05T07:49:23.370Z,54.29
2022-10-05T07:51:53.477Z,56.59
2022-10-05T07:54:26.015Z,55.12
2022-10-05T07:57:11.887Z,54.98
2022-10-05T07:59:58.648Z,55.35
2022-10-05T08:02:33.958Z,52.63
2022-10-05T08:05:23.650Z,51.56
2022-10-05T08:07:55.961Z,50.14
2022-10-05T08:10:49.627Z,49.59
2022-10-05T08:13:30.254Z,50.29
2022-10-05T08:16:02.228Z,49.23
2022-10-05T08:18:48.920Z,48.83
2022-10-05T08:21:21.466Z,46.65
2022-10-05T08:23:58.287Z,44.06
2022-10-05T08:26:46.255Z,46.08
2022-10-05T08:29:24.598Z,43.46
2022-10-05T08:31:58.457Z,44.53
2022-10-05T08:34:50.373Z,44.09
2022-10-05T08:37:24.887Z,44.11
2022-10-05T08:39:56.857Z,44.88
2022-10-05T08:42:53.158Z,46.59
2022-10-05T08:46:02.706Z,44.45
2022-10-05T08:48:37.080Z,44.35
2022-10-05T08:51:26.867Z,46.84
2022-10-05T08:54:25.850Z,48.62
2022-10-05T08:56:56.774Z,50.05
2022-10-05T08:59:24.968Z,50.27
2022-10-05T09:01:59.120Z,51.42
2022-10-05T09:04:36.367Z,51.74
2022-10-05T09:07:14.736Z,50.83
2022-10-05T09:10:10.926Z,50.51
2022-10-05T09:12:47.751Z,48.66
2022-10-05T09:15:46.106Z,48.31
2022-10-05T09:18:38.960Z,46.83
2022-10-05T09:21:19.048Z,47.23
2022-10-05T09:23:50.085Z,44.95
2022-10-05T09:26:52.396Z,44.02
2022-10-05T09:29:38.486Z,43.30
2022-10-05T09:32:11.849Z,44.52
2022-10-05T09:35:04.778Z,45.03
2022-10-05T09:38:11.688Z,42.54
2022-10-05T09:40:57.995Z,44.70
2022-10-05T09:43:41.097Z,43.85
2022-10-05T09:46:23.233Z,40.62
2022-10-05T09:48:57.557Z,41.87
2022-10-05T09:51:48.700Z,42.08
2022-10-05T09:54:43.989Z,43.76
2022-10-05T09:57:20.975Z,44.61
2022-10-05T10:00:10.809Z,46.75
2022-10-05T10:03:20.168Z,46.55
2022-10-05T10:05:57.949Z,47.88
2022-10-05T10:08:36.678Z,47.85
2022-10-05T10:11:08.210Z,48.42
2022-10-05T10:13:53.987Z,47.99
2022-10-05T10:16:46.498Z,45.84
2022-10-05T10:19:26.426Z,44.88
2022-10-05T10:22:22.519Z,41.60
2022-10-05T10:25:31.998Z,43.83
2022-10-05T10:28:19.953Z,45.37
2022-10-05T10:31:15.439Z,43.93
2022-10-05T10:34:01.965Z,44.18
2022-10-05T10:36:57.098Z,43.79
2022-10-05T10:39:28.266Z,43.50
2022-10-05T10:42:33.548Z,45.31
2022-10-05T10:45:05.140Z,45.07
2022-10-05T10:47:53.354Z,45.54
2022-10-05T10:50:50.544Z,45.37
2022-10-05T10:53:58.430Z,45.98
2022-10-05T10:56:48.812Z,43.23
2022-10-05T10:59:51.637Z,43.92
2022-10-05T11:02:53.194Z,44.05
2022-10-05T11:05:50.148Z,43.46
2022-10-05T11:08:39.317Z,41.34
2022-10-05T11:11:23.854Z,44.15
2022-10-05T11:14:29.088Z,44.32
2022-10-05T11:17:20.147Z,43.89
2022-10-05T11:20:20.536Z,41.09
2022-10-05T11:23:12.988Z,41.59
2022-10-05T11:26:17.838Z,42.90
2022-10-05T11:28:51.447Z,39.08
2022-10-05T11:31:31.395Z,38.93
2022-10-05T11:34:07.033Z,41.09
2022-10-05T11:36:54.645Z,37.72
2022-10-05T11:39:44.060Z,40.89
2022-10-05T11:42:39.117Z,38.65
2022-10-05T11:45:25.268Z,41.09
2022-10-05T11:47:56.386Z,41.06
2022-10-05T11:50:39.308Z,38.92
2022-10-05T11:53:13.597Z,41.66
2022-10-05T11:56:04.423Z,42.56
2022-10-05T11:58:40.124Z,40.30
2022-10-05T12:01:30.676Z,41.33
2022-10-05T12:04:25.027Z,41.65
2022-10-05T12:07:11.886Z,42.63
2022-10-05T12:10:21.867Z,40.31
2022-10-05T12:13:06.889Z,38.55
2022-10-05T12:15:42.343Z,38.44
2022-10-05T12:18:32.940Z,39.10
2022-10-05T12:21:28.062Z,40.93
2022-10-05T12:24:10.088Z,39.67
2022-10-05T12:26:46.036Z,40.11
2022-10-05T12:29:22.368Z,42.23
2022-10-05T12:32:01.267Z,42.98
2022-10-05T12:34:39.029Z,41.22
2022-10-05T12:37:29.076Z,43.85
2022-10-05T12:40:14.187Z,41.37
2022-10-05T12:43:05.066Z,42.70
2022-10-05T12:45:39.852Z,41.36
2022-10-05T12:48:34.286Z,41.41
2022-10-05T12:51:19.762Z,42.92
2022-10-05T12:54:09.672Z,41.83
2022-10-05T12:56:44.970Z,41.75
2022-10-05T12:59:36.465Z,42.52
2022-10-05T13:02:30.575Z,43.57
2022-10-05T13:05:04.876Z,42.98
2022-10-05T13:07:41.748Z,42.37
2022-10-05T13:10:19.468Z,42.00
2022-10-05T13:13:12.285Z,43.42
2022-10-05T13:16:05.209Z,42.80
2022-10-05T13:18:54.977Z,44.62
2022-10-05T13:21:48.515Z,41.35
2022-10-05T13:24:24.318Z,42.09
2022-10-05T13:26:59.355Z,41.70
2022-10-05T13:29:42.897Z,43.13
2022-10-05T13:32:17.836Z,43.43
2022-10-05T13:35:10.651Z,43.39
2022-10-05T13:38:06.416Z,43.96
2022-10-05T13:40:35.809Z,43.99
2022-10-05T13:43:17.798Z,43.38
2022-10-05T13:45:55.767Z,43.97
2022-10-05T13:48:41.636Z,45.02
2022-10-05T13:51:19.699Z,46.02
2022-10-05T13:54:02.431Z,45.35
2022-10-05T13:56:34.173Z,46.66
2022-10-05T13:59:25.767Z,45.75
2022-10-05T14:02:05.652Z,46.09
2022-10-05T14:04:47.198Z,46.30
2022-10-05T14:07:35.208Z,46.69
2022-10-05T14:10:07.662Z,46.14
2022-10-05T14:12:43.987Z,46.60
2022-10-05T14:15:28.066Z,47.75
2022-10-05T14:17:56.197Z,47.04
2022-10-05T14:20:36.302Z,46.52
2022-10-05T14:23:18.566Z,46.18
2022-10-05T14:25:54.295Z,45.20
2022-10-05T14:28:33.931Z,46.43
2022-10-05T14:31:14.653Z,47.42
2022-10-05T14:33:42.999Z,46.52
2022-10-05T14:36:34.187Z,46.21
2022-10-05T14:39:05.249Z,45.36
2022-10-05T14:41:37.776Z,45.92
2022-10-05T14:44:09.694Z,45.72
2022-10-05T14:46:40.309Z,45.37
2022-10-05T14:49:28.326Z,47.03
2022-10-05T14:51:57.169Z,45.78
2022-10-05T14:54:28.004Z,47.93
2022-10-05T14:57:22.745Z,47.03
2022-10-05T15:00:04.419Z,46.83
2022-10-05T15:02:52.519Z,45.77
2022-10-05T15:05:35.715Z,47.67
2022-10-05T15:08:13.363Z,48.48
2022-10-05T15:10:47.247Z,49.57
2022-10-05T15:13:19.015Z,49.37
2022-10-05T15:15:57.111Z,48.96
2022-10-05T15:18:44.264Z,49.75
2022-10-05T15:21:43.470Z,50.68
2022-10-05T15:24:44.435Z,50.64
2022-10-05T15:27:39.716Z,52.23
2022-10-05T15:30:15.517Z,53.57
2022-10-05T15:33:01.506Z,54.03
2022-10-05T15:35:36.988Z,54.22
2022-10-05T15:38:14.297Z,54.82
2022-10-05T15:41:10.948Z,55.66
2022-10-05T15:43:46.756Z,54.00
2022-10-05T15:46:24.635Z,54.44
2022-10-05T15:49:18.817Z,53.67
2022-10-05T15:52:27.129Z,54.71
2022-10-05T15:55:00.955Z,55.46
2022-10-05T15:57:53.948Z,56.63
2022-10-05T16:00:23.098Z,55.12
2022-10-05T16:03:00.439Z,56.46
2022-10-05T16:06:25.458Z,55.68
2022-10-05T16:09:14.025Z,57.14
2022-10-05T16:12:02.763Z,57.40
2022-10-05T16:15:01.048Z,58.55
2022-10-05T16:17:29.017Z,59.09
2022-10-05T16:20:35.993Z,58.22
2022-10-05T16:23:28.456Z,60.07
2022-10-05T16:26:05.995Z,60.32
2022-10-05T16:29:11.937Z,61.52
2022-10-05T16:31:52.667Z,62.10
2022-10-05T16:34:44.619Z,62.30
2022-10-05T16:37:33.629Z,61.19
2022-10-05T16:40:16.646Z,63.30
2022-10-05T16:43:09.258Z,62.32
2022-10-05T16:45:45.118Z,62.95
2022-10-05T16:48:26.352Z,64.04
2022-10-05T16:51:38.578Z,67.09
2022-10-05T16:54:18.536Z,64.87
2022-10-05T16:56:57.586Z,68.17
2022-10-05T16:59:58.076Z,67.58
2022-10-05T17:02:25.892Z,66.98
2022-10-05T17:05:20.306Z,65.95
2022-10-05T17:08:10.048Z,68.32
2022-10-05T17:10:38.208Z,71.37
2022-10-05T17:13:43.805Z,70.50
2022-10-05T17:16:24.286Z,67.45
2022-10-05T17:19:10.356Z,67.00
2022-10-05T17:21:55.964Z,69.76
2022-10-05T17:24:36.226Z,69.11
2022-10-05T17:27:50.699Z,71.84
2022-10-05T17:30:39.310Z,68.33
2022-10-05T17:33:27.634Z,70.76
2022-10-05T17:36:12.616Z,68.66
2022-10-05T17:38:53.383Z,72.01
2022-10-05T17:41:28.885Z,69.23
2022-10-05T17:44:24.694Z,72.55
2022-10-05T17:47:00.018Z,74.23
2022-10-05T17:50:18.336Z,70.66
2022-10-05T17:53:54.157Z,70.93
2022-10-05T17:56:23.216Z,69.53
2022-10-05T17:58:54.768Z,69.83
2022-10-05T18:01:30.867Z,69.25
2022-10-05T18:04:26.316Z,71.03
2022-10-05T18:06:59.908Z,74.86
2022-10-05T18:09:31.055Z,74.70
2022-10-05T18:12:03.374Z,75.93
2022-10-05T18:15:00.989Z,75.97
2022-10-05T18:17:41.323Z,73.59
2022-10-05T18:20:16.004Z,74.83
2022-10-05T18:22:46.660Z,75.60
2022-10-05T18:25:20.977Z,75.70
2022-10-05T18:27:50.895Z,76.15
2022-10-05T18:30:23.388Z,73.50
2022-10-05T18:32:51.377Z,72.54
2022-10-05T18:35:33.526Z,73.68
2022-10-05T18:38:30.868Z,72.98
2022-10-05T18:41:17.599Z,72.54
2022-10-05T18:44:15.130Z,75.19
2022-10-05T18:46:54.911Z,73.26
2022-10-05T18:50:01.567Z,73.62
2022-10-05T18:53:00.726Z,71.02
2022-10-05T18:55:36.887Z,71.99
2022-10-05T18:58:24.282Z,74.52
2022-10-05T19:01:23.604Z,75.41
2022-10-05T19:03:59.407Z,76.09
2022-10-05T19:07:09.029Z,76.44
2022-10-05T19:09:51.155Z,76.93
2022-10-05T19:12:22.001Z,73.17
2022-10-05T19:15:16.078Z,75.98
2022-10-05T19:18:19.427Z,72.38
2022-10-05T19:21:01.508Z,72.05
2022-10-05T19:23:45.476Z,72.73
2022-10-05T19:26:25.746Z,73.61
2022-10-05T19:29:06.654Z,73.20
2022-10-05T19:31:44.975Z,72.74
2022-10-05T19:34:24.995Z,74.04
2022-10-05T19:37:19.597Z,74.21
2022-10-05T19:39:54.536Z,73.86
2022-10-05T19:43:00.608Z,75.56
2022-10-05T19:45:30.007Z,73.28
2022-10-05T19:48:29.755Z,75.24
2022-10-05T19:50:59.490Z,77.13
2022-10-05T19:53:36.545Z,75.07
2022-10-05T19:56:21.170Z,74.27
2022-10-05T19:58:50.925Z,73.46
2022-10-05T20:01:27.843Z,73.89
2022-10-05T20:03:57.824Z,74.09
2022-10-05T20:06:27.195Z,74.38
2022-10-05T20:09:01.755Z,77.31
2022-10-05T20:11:29.629Z,76.92
2022-10-05T20:13:58.675Z,77.91
2022-10-05T20:16:45.272Z,78.78
2022-10-05T20:19:50.631Z,76.81
2022-10-05T20:22:39.716Z,76.58
2022-10-05T20:25:29.089Z,75.04
2022-10-05T20:27:57.455Z,76.51
2022-10-05T20:30:28.309Z,75.25
2022-10-05T20:33:01.639Z,76.11
2022-10-05T20:35:31.132Z,74.93
2022-10-05T20:37:59.533Z,75.39
2022-10-05T20:40:29.331Z,76.65
2022-10-05T20:42:58.437Z,74.94
2022-10-05T20:45:26.576Z,74.02
2022-10-05T20:47:55.262Z,74.97
2022-10-05T20:50:23.345Z,79.29
2022-10-05T20:52:51.483Z,75.94
2022-10-05T20:55:20.894Z,76.45
2022-10-05T20:57:49.116Z,74.51
2022-10-05T21:00:16.877Z,75.17
2022-10-05T21:02:44.655Z,75.56
2022-10-05T21:05:12.915Z,74.63
2022-10-05T21:07:41.086Z,77.34
2022-10-05T21:10:09.186Z,78.82
2022-10-05T21:12:37.585Z,79.05
2022-10-05T21:15:05.947Z,76.71
2022-10-05T21:17:34.827Z,75.54
2022-10-05T21:20:02.945Z,75.02
2022-10-05T21:22:30.948Z,78.37
2022-10-05T21:24:58.817Z,76.86
2022-10-05T21:27:26.905Z,76.31
2022-10-05T21:29:54.718Z,78.29
2022-10-05T21:32:22.463Z,77.01
2022-10-05T21:34:50.497Z,77.00
2022-10-05T21:37:20.045Z,76.01
2022-10-05T21:39:48.223Z,77.11
2022-10-05T21:42:16.305Z,77.11
2022-10-05T21:44:44.084Z,78.65
2022-10-05T21:47:12.596Z,78.96
2022-10-05T21:49:41.615Z,77.46
2022-10-05T21:52:09.406Z,79.54
2022-10-05T21:54:37.136Z,78.40
2022-10-05T21:57:05.278Z,76.89
2022-10-05T21:59:34.156Z,78.01
2022-10-05T22:02:02.555Z,76.51
2022-10-05T22:04:30.565Z,77.15
2022-10-05T22:06:58.386Z,76.05
2022-10-05T22:09:26.128Z,75.47
2022-10-05T22:11:55.111Z,77.72
2022-10-05T22:14:22.920Z,77.23
2022-10-05T22:16:50.739Z,79.19
2022-10-05T22:19:19.649Z,78.02
2022-10-05T22:21:47.645Z,77.07
2022-10-05T22:24:15.414Z,79.21
2022-10-05T22:26:46.146Z,79.62
2022-10-05T22:29:15.311Z,78.25
2022-10-05T22:31:44.062Z,76.66
2022-10-05T22:34:11.838Z,76.14
2022-10-05T22:36:39.577Z,77.28
2022-10-05T22:39:08.358Z,77.02
2022-10-05T22:41:36.067Z,79.70
2022-10-05T22:44:04.475Z,77.30
2022-10-05T22:46:32.796Z,77.42
2022-10-05T22:49:00.548Z,80.62
2022-10-05T22:51:28.556Z,80.59
2022-10-05T22:53:56.618Z,78.08
2022-10-05T22:56:24.356Z,77.69
2022-10-05T22:58:52.716Z,80.21
2022-10-05T23:01:21.071Z,78.26
2022-10-05T23:03:48.967Z,78.01
2022-10-05T23:06:20.753Z,77.10
2022-10-05T23:08:48.933Z,78.04
2022-10-05T23:11:24.055Z,77.67
2022-10-05T23:13:57.003Z,80.77
2022-10-05T23:16:26.983Z,82.89
2022-10-05T23:18:56.199Z,80.19
2022-10-05T23:21:25.967Z,78.96
2022-10-05T23:23:53.958Z,79.60
2022-10-05T23:26:24.021Z,80.26
2022-10-05T23:28:52.058Z,81.16
2022-10-05T23:31:25.255Z,78.75
2022-10-05T23:33:54.046Z,80.06
2022-10-05T23:36:24.096Z,80.24
2022-10-05T23:38:52.316Z,79.92
2022-10-05T23:41:20.846Z,78.03
2022-10-05T23:43:49.049Z,77.13
2022-10-05T23:46:18.082Z,77.10
2022-10-05T23:48:46.217Z,77.53
2022-10-05T23:51:14.626Z,78.54
2022-10-05T23:53:42.414Z,78.12
2022-10-05T23:56:10.455Z,77.89
2022-10-05T23:58:38.176Z,77.44
